Time;durP1;ratioP1;P1;durP2;ratioP2;P2;SDS_P1;SDS_P2;PMS_P1;PMS_P2;Temp;Humidity;BMP_temperature;BMP_pressure;BME280_temperature;BME280_humidity;BME280_pressure;Samples;Min_cycle;Max_cycle;Signal;HPM_P1;HPM_P2
2024/01/19 01:35:00;;;;;;;12.23;6.97;;;0.70;98.30;;;;;;6241289;23;20024;-61
2024/01/19 01:37:46;;;;;;;12.90;7.75;;;0.70;98.40;;;;;;6241542;23;20019;-61
2024/01/19 01:40:33;;;;;;;15.20;7.25;;;0.70;98.40;;;;;;6243282;23;20062;-61
2024/01/19 01:43:22;;;;;;;11.20;7.53;;;0.70;98.50;;;;;;6241801;23;20095;-62
2024/01/19 01:46:08;;;;;;;11.50;7.32;;;0.70;98.40;;;;;;6241767;23;20019;-61
2024/01/19 01:48:54;;;;;;;11.70;7.10;;;0.70;98.40;;;;;;6241726;23;20092;-61
2024/01/19 01:51:40;;;;;;;12.43;8.15;;;0.70;98.40;;;;;;6241250;23;20445;-67
2024/01/19 01:54:28;;;;;;;13.30;7.55;;;0.60;98.30;;;;;;6241107;23;20043;-63
2024/01/19 01:57:14;;;;;;;10.65;7.55;;;0.60;98.30;;;;;;6241130;23;20016;-63
2024/01/19 02:00:01;;;;;;;11.60;7.65;;;0.60;98.40;;;;;;6241476;23;20027;-64
2024/01/19 02:02:48;;;;;;;11.40;6.90;;;0.60;98.30;;;;;;6241730;23;20306;-63
2024/01/19 02:05:33;;;;;;;17.08;9.02;;;0.60;98.30;;;;;;6240036;23;20106;-63
2024/01/19 02:08:19;;;;;;;12.35;7.50;;;0.70;98.30;;;;;;6242225;23;20378;-64
2024/01/19 02:11:05;;;;;;;11.70;7.20;;;0.60;98.20;;;;;;6242004;23;20521;-63
2024/01/19 02:13:51;;;;;;;14.63;7.20;;;0.60;98.20;;;;;;6242848;23;20114;-64
2024/01/19 02:16:37;;;;;;;11.57;7.25;;;0.60;98.20;;;;;;6241572;23;20031;-64
2024/01/19 02:19:23;;;;;;;14.10;7.32;;;0.60;98.20;;;;;;6240907;23;20421;-64
2024/01/19 02:22:09;;;;;;;12.82;8.20;;;0.60;98.20;;;;;;6242339;23;20008;-68
2024/01/19 02:24:55;;;;;;;11.50;7.60;;;0.60;98.20;;;;;;6241244;23;20016;-64
2024/01/19 02:27:41;;;;;;;13.35;7.95;;;0.60;98.10;;;;;;6240051;23;20011;-64
2024/01/19 02:30:28;;;;;;;15.05;7.50;;;0.60;98.20;;;;;;6241082;23;20066;-64
2024/01/19 02:33:14;;;;;;;14.50;8.60;;;0.50;98.20;;;;;;6210986;23;20536;-65
2024/01/19 02:36:00;;;;;;;14.30;7.47;;;0.50;98.20;;;;;;6211400;23;20091;-64
2024/01/19 02:38:46;;;;;;;12.20;8.07;;;0.60;98.20;;;;;;6212513;23;20008;-65
2024/01/19 02:41:32;;;;;;;13.13;8.20;;;0.60;98.10;;;;;;6212174;23;20012;-64
2024/01/19 02:44:18;;;;;;;13.90;7.78;;;0.60;98.10;;;;;;6212240;23;20005;-64
2024/01/19 02:47:04;;;;;;;12.55;6.00;;;0.60;98.10;;;;;;6211009;23;20013;-65
2024/01/19 02:49:50;;;;;;;11.95;6.82;;;0.50;98.20;;;;;;6211286;23;20063;-65
2024/01/19 02:52:36;;;;;;;11.93;6.93;;;0.60;98.10;;;;;;6211461;23;20349;-65
2024/01/19 02:55:22;;;;;;;12.73;6.90;;;0.60;98.10;;;;;;6210144;23;20068;-65
2024/01/19 02:58:08;;;;;;;15.05;7.95;;;0.60;98.10;;;;;;6208777;23;20036;-65
2024/01/19 03:00:54;;;;;;;11.68;6.40;;;0.60;98.10;;;;;;6211368;23;20349;-65
2024/01/19 03:03:40;;;;;;;9.40;5.65;;;0.70;98.10;;;;;;6210985;23;20412;-65
2024/01/19 03:06:26;;;;;;;10.35;5.93;;;0.70;98.10;;;;;;6212022;23;20461;-65
2024/01/19 03:09:12;;;;;;;8.80;5.57;;;0.70;98.10;;;;;;6211957;23;20009;-65
2024/01/19 03:11:58;;;;;;;9.32;5.00;;;0.70;98.00;;;;;;6210241;23;20461;-64
2024/01/19 03:14:43;;;;;;;8.23;5.28;;;0.80;98.10;;;;;;6211799;23;20095;-63
2024/01/19 03:17:29;;;;;;;8.95;6.00;;;0.80;98.00;;;;;;6211615;23;20066;-64
2024/01/19 03:20:15;;;;;;;7.47;5.25;;;0.80;98.00;;;;;;6212465;23;20095;-66
2024/01/19 03:23:01;;;;;;;8.40;5.20;;;0.80;98.00;;;;;;6210607;23;20008;-65
2024/01/19 03:25:48;;;;;;;8.57;5.13;;;0.70;97.90;;;;;;6211744;23;20082;-65
2024/01/19 03:28:34;;;;;;;8.20;4.72;;;0.70;97.90;;;;;;6211786;23;20017;-65
2024/01/19 03:31:20;;;;;;;8.88;5.03;;;0.70;97.90;;;;;;6210554;23;20338;-65
2024/01/19 03:34:06;;;;;;;8.63;4.35;;;0.70;98.00;;;;;;6237544;23;20508;-66
2024/01/19 03:36:52;;;;;;;7.40;4.70;;;0.70;98.00;;;;;;6241976;23;20357;-66
2024/01/19 03:39:38;;;;;;;7.18;4.50;;;0.70;97.90;;;;;;6241523;23;20102;-64
2024/01/19 03:42:26;;;;;;;11.65;4.85;;;0.80;97.90;;;;;;6266086;23;20003;-65
2024/01/19 03:45:12;;;;;;;6.93;4.70;;;0.80;97.90;;;;;;6266147;23;20012;-65
2024/01/19 03:47:58;;;;;;;9.73;4.07;;;0.80;97.80;;;;;;6242682;23;20004;-62
2024/01/19 03:50:44;;;;;;;7.15;3.88;;;0.80;97.80;;;;;;6242468;23;20020;-61
2024/01/19 03:53:30;;;;;;;9.65;4.28;;;0.90;97.80;;;;;;6241536;23;20019;-61
2024/01/19 03:56:16;;;;;;;7.68;3.90;;;0.90;97.70;;;;;;6243025;23;20440;-61
2024/01/19 03:59:02;;;;;;;7.38;3.83;;;0.90;97.70;;;;;;6241681;23;20452;-61
2024/01/19 04:01:48;;;;;;;6.10;3.67;;;0.90;97.70;;;;;;6243359;23;20448;-62
2024/01/19 04:04:34;;;;;;;18.13;3.97;;;0.90;97.70;;;;;;6243435;23;20405;-62
2024/01/19 04:07:20;;;;;;;6.50;3.88;;;0.90;97.60;;;;;;6241084;23;20020;-62
2024/01/19 04:10:06;;;;;;;11.45;4.22;;;0.90;97.60;;;;;;6241187;23;20016;-62
2024/01/19 04:12:52;;;;;;;6.95;3.88;;;0.90;97.70;;;;;;6243646;23;20446;-61
2024/01/19 04:15:38;;;;;;;7.13;4.03;;;0.90;97.70;;;;;;6241448;23;20341;-62
2024/01/19 04:18:24;;;;;;;6.90;3.80;;;1.00;97.70;;;;;;6221155;23;20052;-61
2024/01/19 04:21:10;;;;;;;9.57;4.70;;;1.00;97.70;;;;;;6241425;23;20010;-61
2024/01/19 04:23:57;;;;;;;7.57;3.72;;;1.00;97.70;;;;;;6242088;23;20016;-62
2024/01/19 04:26:43;;;;;;;13.10;4.60;;;1.00;97.70;;;;;;6242698;23;20004;-62
2024/01/19 04:29:28;;;;;;;5.90;3.63;;;1.10;97.70;;;;;;6242326;23;20337;-62
2024/01/19 04:32:14;;;;;;;5.90;3.55;;;1.20;97.70;;;;;;6241819;22;20433;-62
2024/01/19 04:35:03;;;;;;;6.25;3.42;;;1.20;97.70;;;;;;6240990;23;20001;-62
2024/01/19 04:37:48;;;;;;;7.05;3.70;;;1.20;97.70;;;;;;6243319;23;20012;-61
2024/01/19 04:40:34;;;;;;;6.80;3.90;;;1.30;97.70;;;;;;6241907;23;20024;-62
2024/01/19 04:43:20;;;;;;;5.88;3.03;;;1.30;97.60;;;;;;6240581;23;20004;-62
2024/01/19 04:46:06;;;;;;;7.85;3.70;;;1.30;97.60;;;;;;6240963;23;20016;-62
2024/01/19 04:48:52;;;;;;;7.22;3.65;;;1.30;97.60;;;;;;6241679;23;20004;-62
2024/01/19 04:51:38;;;;;;;6.32;4.00;;;1.40;97.60;;;;;;6242758;23;20016;-63
2024/01/19 04:54:24;;;;;;;5.97;3.10;;;1.50;97.60;;;;;;6240377;23;20437;-62
2024/01/19 04:57:10;;;;;;;6.35;2.70;;;1.40;97.50;;;;;;6239837;23;20017;-60
2024/01/19 04:59:56;;;;;;;4.88;3.30;;;1.40;97.50;;;;;;6241820;23;20007;-62
2024/01/19 05:02:43;;;;;;;3.67;2.33;;;1.50;97.50;;;;;;6240147;23;20036;-61
2024/01/19 05:05:29;;;;;;;7.60;3.05;;;1.50;97.50;;;;;;6243717;23;20443;-61
2024/01/19 05:08:15;;;;;;;5.97;2.85;;;1.50;97.40;;;;;;6241354;23;20107;-61
2024/01/19 05:11:01;;;;;;;7.60;4.22;;;1.60;97.40;;;;;;6220622;23;20016;-61
2024/01/19 05:13:47;;;;;;;5.50;2.85;;;1.60;97.40;;;;;;6241205;23;20008;-62
2024/01/19 05:16:32;;;;;;;7.18;3.13;;;1.60;97.40;;;;;;6241756;23;20087;-62
2024/01/19 05:19:18;;;;;;;5.80;3.13;;;1.60;97.40;;;;;;6241015;23;20015;-61
2024/01/19 05:22:04;;;;;;;6.13;2.70;;;1.60;97.40;;;;;;6240227;23;20019;-62
2024/01/19 05:24:50;;;;;;;5.43;2.90;;;1.60;97.40;;;;;;6243269;23;20004;-62
2024/01/19 05:27:36;;;;;;;5.35;2.60;;;1.60;97.30;;;;;;6241989;23;20012;-62
2024/01/19 05:30:25;;;;;;;8.52;3.58;;;1.60;97.30;;;;;;6240402;23;20091;-62
2024/01/19 05:33:11;;;;;;;6.82;2.95;;;1.70;97.50;;;;;;6242914;23;20042;-61
2024/01/19 05:35:57;;;;;;;4.22;2.78;;;1.70;97.30;;;;;;6240237;23;20463;-61
2024/01/19 05:38:43;;;;;;;4.40;2.90;;;1.70;97.20;;;;;;6242588;23;20083;-61
2024/01/19 05:41:29;;;;;;;7.05;2.90;;;1.70;97.20;;;;;;6240248;23;20429;-61
2024/01/19 05:44:14;;;;;;;5.40;2.28;;;1.70;97.20;;;;;;6241175;23;20341;-62
2024/01/19 05:47:00;;;;;;;6.53;2.45;;;1.70;97.20;;;;;;6241548;23;20329;-61
2024/01/19 05:49:46;;;;;;;4.70;3.20;;;1.70;97.20;;;;;;6240657;23;20012;-61
2024/01/19 05:52:32;;;;;;;5.35;2.50;;;1.70;97.10;;;;;;6242462;23;20020;-63
2024/01/19 05:55:18;;;;;;;6.53;2.70;;;1.80;97.20;;;;;;6240965;23;20005;-61
2024/01/19 05:58:05;;;;;;;7.82;2.97;;;1.80;97.10;;;;;;6241307;23;20019;-61
2024/01/19 06:00:51;;;;;;;7.40;2.30;;;1.80;97.10;;;;;;6241852;23;20078;-62
2024/01/19 06:03:37;;;;;;;4.15;2.40;;;1.80;97.10;;;;;;6242063;23;20082;-61
2024/01/19 06:06:23;;;;;;;7.00;2.28;;;1.80;97.00;;;;;;6241301;23;20036;-61
2024/01/19 06:09:10;;;;;;;6.85;2.47;;;1.80;97.00;;;;;;6241062;23;20009;-61
2024/01/19 06:11:56;;;;;;;5.30;2.70;;;1.80;97.00;;;;;;6239498;23;20030;-61
2024/01/19 06:14:42;;;;;;;3.60;3.17;;;1.80;97.00;;;;;;6241042;23;20015;-61
2024/01/19 06:17:28;;;;;;;5.90;2.70;;;1.80;97.00;;;;;;6239476;23;20012;-61
2024/01/19 06:20:14;;;;;;;4.78;2.92;;;1.70;97.10;;;;;;6239607;23;20008;-61
2024/01/19 06:23:00;;;;;;;6.97;2.88;;;1.80;96.90;;;;;;6240267;23;20030;-61
2024/01/19 06:25:46;;;;;;;3.67;2.80;;;1.80;96.90;;;;;;6241274;23;20016;-61
2024/01/19 06:28:32;;;;;;;5.95;3.20;;;1.80;96.90;;;;;;6241291;23;20004;-62
2024/01/19 06:31:18;;;;;;;5.65;2.50;;;1.80;96.90;;;;;;6242448;23;20555;-62
2024/01/19 06:34:03;;;;;;;5.63;2.65;;;1.80;96.90;;;;;;6239837;23;20247;-62
2024/01/19 06:36:49;;;;;;;3.70;2.58;;;1.80;96.90;;;;;;6240638;23;20468;-62
2024/01/19 06:39:35;;;;;;;6.95;3.22;;;1.80;96.80;;;;;;6242405;23;20008;-62
2024/01/19 06:42:21;;;;;;;3.72;2.40;;;1.70;96.80;;;;;;6240762;23;20012;-62
2024/01/19 06:45:08;;;;;;;4.43;2.40;;;1.80;96.90;;;;;;6242007;23;20090;-62
2024/01/19 06:47:53;;;;;;;5.40;2.85;;;1.70;96.80;;;;;;6241339;23;20061;-64
2024/01/19 06:50:39;;;;;;;5.78;2.70;;;1.70;96.90;;;;;;6239880;23;20013;-62
2024/01/19 06:53:25;;;;;;;7.50;2.67;;;1.70;96.90;;;;;;6240415;23;20012;-62
2024/01/19 06:56:11;;;;;;;7.15;3.50;;;1.80;96.90;;;;;;6240112;23;20047;-61
2024/01/19 06:58:57;;;;;;;9.57;2.92;;;1.70;96.90;;;;;;6240805;23;20436;-62
2024/01/19 07:01:43;;;;;;;5.55;2.72;;;1.80;96.90;;;;;;6239319;23;20012;-62
2024/01/19 07:04:29;;;;;;;6.13;3.28;;;1.80;97.00;;;;;;6239820;23;20246;-62
2024/01/19 07:07:15;;;;;;;5.65;2.55;;;1.80;97.00;;;;;;6241377;23;20016;-62
2024/01/19 07:10:01;;;;;;;6.22;2.97;;;1.80;97.00;;;;;;6241931;23;20095;-63
2024/01/19 07:12:47;;;;;;;6.10;2.90;;;1.80;97.00;;;;;;6240842;23;20104;-62
2024/01/19 07:15:33;;;;;;;4.45;3.00;;;1.90;97.00;;;;;;6264698;23;20031;-59
2024/01/19 07:18:19;;;;;;;8.15;3.72;;;1.90;97.00;;;;;;6259665;23;20038;-61
2024/01/19 07:21:05;;;;;;;6.80;2.95;;;1.90;97.00;;;;;;6243503;23;20507;-59
2024/01/19 07:23:51;;;;;;;5.22;2.90;;;1.90;97.00;;;;;;6240943;23;20075;-60
2024/01/19 07:26:37;;;;;;;6.03;3.00;;;1.90;97.00;;;;;;6219397;23;20012;-62
2024/01/19 07:29:23;;;;;;;6.55;3.45;;;1.90;97.00;;;;;;6220791;23;20008;-61
2024/01/19 07:32:09;;;;;;;6.32;2.95;;;1.90;97.10;;;;;;6238991;22;20048;-61
2024/01/19 07:34:55;;;;;;;8.45;3.90;;;2.00;97.20;;;;;;6240294;23;20012;-61
2024/01/19 07:37:41;;;;;;;7.60;3.40;;;2.00;97.20;;;;;;6239519;23;20337;-61
2024/01/19 07:40:27;;;;;;;6.60;3.88;;;2.00;97.20;;;;;;6241250;23;20005;-61
2024/01/19 07:43:13;;;;;;;7.57;3.47;;;2.00;97.20;;;;;;6241233;23;20015;-61
2024/01/19 07:45:59;;;;;;;9.85;3.65;;;2.10;97.20;;;;;;6217645;23;20070;-61
2024/01/19 07:48:44;;;;;;;4.78;2.65;;;2.10;97.20;;;;;;6238771;23;20012;-61
2024/01/19 07:51:30;;;;;;;4.68;3.28;;;2.20;97.30;;;;;;6238565;23;20023;-61
2024/01/19 07:54:17;;;;;;;7.68;3.80;;;2.20;97.30;;;;;;6240621;23;20012;-61
2024/01/19 07:57:03;;;;;;;7.50;3.58;;;2.20;97.30;;;;;;6238481;23;20063;-61
2024/01/19 07:59:49;;;;;;;5.78;3.20;;;2.30;97.30;;;;;;6241143;23;20039;-60
2024/01/19 08:02:35;;;;;;;6.80;3.70;;;2.30;97.30;;;;;;6241334;23;20012;-61
2024/01/19 08:05:21;;;;;;;7.50;3.83;;;2.40;97.40;;;;;;6239026;23;20004;-61
2024/01/19 08:08:07;;;;;;;8.52;3.35;;;2.40;97.60;;;;;;6241254;23;20416;-61
2024/01/19 08:10:53;;;;;;;9.05;3.78;;;2.40;97.40;;;;;;6238586;23;20027;-60
2024/01/19 08:13:39;;;;;;;8.00;3.60;;;2.40;97.40;;;;;;6239524;23;20094;-59
2024/01/19 08:16:25;;;;;;;6.00;3.38;;;2.50;97.40;;;;;;6240176;23;20044;-60
2024/01/19 08:19:11;;;;;;;8.05;4.20;;;2.50;97.40;;;;;;6240794;23;20100;-60
2024/01/19 08:21:57;;;;;;;9.27;4.15;;;2.50;97.40;;;;;;6239364;23;20445;-60
2024/01/19 08:24:43;;;;;;;5.20;3.33;;;2.50;97.40;;;;;;6237472;23;20464;-61
2024/01/19 08:27:29;;;;;;;7.18;3.03;;;2.60;97.40;;;;;;6239309;23;20087;-60
2024/01/19 08:30:19;;;;;;;7.43;3.78;;;2.60;97.40;;;;;;6239910;23;20016;-59
2024/01/19 08:33:05;;;;;;;8.27;4.47;;;2.60;97.50;;;;;;6239356;23;20079;-61
2024/01/19 08:35:51;;;;;;;6.53;3.75;;;2.60;97.40;;;;;;6238434;23;20016;-61
2024/01/19 08:38:37;;;;;;;5.97;3.95;;;2.60;97.30;;;;;;6240513;23;20073;-62
2024/01/19 08:41:24;;;;;;;7.22;3.92;;;2.70;97.40;;;;;;6240797;23;20561;-61
2024/01/19 08:44:11;;;;;;;7.32;4.25;;;2.70;97.40;;;;;;6239871;23;20036;-59
2024/01/19 08:47:03;;;;;;;7.40;3.80;;;2.70;97.30;;;;;;6242825;23;20019;-60
2024/01/19 08:49:49;;;;;;;5.50;3.80;;;2.70;97.30;;;;;;6218963;23;20015;-59
2024/01/19 08:52:35;;;;;;;6.68;4.40;;;2.80;97.30;;;;;;6242457;23;20119;-65
2024/01/19 08:55:21;;;;;;;8.75;4.65;;;2.80;97.30;;;;;;6242804;23;20011;-63
2024/01/19 08:58:07;;;;;;;7.00;4.10;;;2.80;97.30;;;;;;6220460;23;20446;-63
2024/01/19 09:00:52;;;;;;;8.43;5.05;;;2.80;97.20;;;;;;6240863;23;20332;-63
2024/01/19 09:03:38;;;;;;;7.47;4.43;;;2.80;97.10;;;;;;6240977;23;20019;-63
2024/01/19 09:06:24;;;;;;;11.43;4.40;;;2.80;97.20;;;;;;6240462;23;20082;-63
2024/01/19 09:09:10;;;;;;;7.80;4.32;;;2.80;97.20;;;;;;6239644;23;20008;-63
2024/01/19 09:11:57;;;;;;;8.43;4.95;;;2.80;97.20;;;;;;6219784;23;20115;-64
2024/01/19 09:14:43;;;;;;;8.18;5.07;;;2.80;97.20;;;;;;6240322;23;20013;-63
2024/01/19 09:17:29;;;;;;;15.52;5.30;;;2.80;97.10;;;;;;6239848;23;20090;-62
2024/01/19 09:20:15;;;;;;;7.97;5.03;;;2.80;97.10;;;;;;6238524;23;20319;-64
2024/01/19 09:23:01;;;;;;;6.07;4.53;;;2.80;97.10;;;;;;6241203;23;20138;-63
2024/01/19 09:25:47;;;;;;;9.68;5.15;;;2.70;97.10;;;;;;6239862;23;20008;-63
2024/01/19 09:28:33;;;;;;;11.75;4.90;;;2.70;97.10;;;;;;6243139;23;20016;-63
2024/01/19 09:31:20;;;;;;;8.82;5.28;;;2.70;97.10;;;;;;6241188;23;20058;-63
2024/01/19 09:34:06;;;;;;;12.20;5.10;;;2.70;97.10;;;;;;6239121;23;20016;-63
2024/01/19 09:36:52;;;;;;;9.85;4.95;;;2.70;97.10;;;;;;6239280;23;20099;-63
2024/01/19 09:39:38;;;;;;;13.00;4.50;;;2.70;97.10;;;;;;6239824;23;20012;-63
2024/01/19 09:42:30;;;;;;;11.05;5.70;;;2.70;97.10;;;;;;6239318;23;20400;-63
2024/01/19 09:45:19;;;;;;;8.88;4.85;;;2.80;97.20;;;;;;6241093;23;20012;-63
2024/01/19 09:48:07;;;;;;;8.10;4.65;;;2.70;97.20;;;;;;6240639;23;20079;-63
2024/01/19 09:50:55;;;;;;;10.68;5.18;;;2.80;97.20;;;;;;6238237;23;20335;-63
2024/01/19 09:53:47;;;;;;;9.35;5.85;;;2.80;97.20;;;;;;6239619;23;20008;-63
2024/01/19 09:56:33;;;;;;;7.65;4.70;;;2.80;97.20;;;;;;6240011;23;20019;-63
2024/01/19 09:59:22;;;;;;;7.72;4.90;;;2.80;97.30;;;;;;6241624;23;20004;-63
2024/01/19 10:02:09;;;;;;;6.43;4.72;;;2.90;97.20;;;;;;6241276;23;20472;-63
2024/01/19 10:04:58;;;;;;;8.52;5.50;;;2.90;97.20;;;;;;6240068;23;20012;-62
2024/01/19 10:07:47;;;;;;;6.63;4.25;;;2.90;97.20;;;;;;6241315;23;20008;-63
2024/01/19 10:10:34;;;;;;;8.20;4.88;;;2.90;97.10;;;;;;6241001;23;20015;-62
2024/01/19 10:13:20;;;;;;;6.45;4.20;;;3.00;97.20;;;;;;6238930;23;20012;-63
2024/01/19 10:16:07;;;;;;;8.93;4.90;;;3.00;97.20;;;;;;6240474;23;20433;-63
2024/01/19 10:18:54;;;;;;;7.13;4.03;;;3.00;97.10;;;;;;6218891;23;20004;-63
2024/01/19 10:21:40;;;;;;;6.78;4.70;;;3.10;97.20;;;;;;6241153;23;20459;-62
2024/01/19 10:24:26;;;;;;;10.95;4.45;;;3.10;97.10;;;;;;6241820;23;20011;-70
2024/01/19 10:27:12;;;;;;;9.40;4.50;;;3.10;97.10;;;;;;6241944;23;20035;-69
2024/01/19 10:30:10;;;;;;;9.00;5.00;;;3.10;97.10;;;;;;6241738;23;20014;-69
2024/01/19 10:33:05;;;;;;;9.93;5.32;;;3.10;97.10;;;;;;6244565;23;20026;-69
2024/01/19 10:35:55;;;;;;;10.27;5.10;;;3.10;97.10;;;;;;6243192;23;20015;-70
2024/01/19 10:38:41;;;;;;;8.23;4.80;;;3.10;97.10;;;;;;6255232;23;20012;-69
2024/01/19 10:41:27;;;;;;;10.48;5.18;;;3.20;97.20;;;;;;6251520;23;20007;-69
2024/01/19 10:44:20;;;;;;;8.43;4.75;;;3.20;97.10;;;;;;6249786;23;20436;-69
2024/01/19 10:47:07;;;;;;;11.88;5.03;;;3.30;97.10;;;;;;6241481;23;20012;-69
2024/01/19 10:50:05;;;;;;;7.25;4.57;;;3.20;97.10;;;;;;6239987;23;20439;-69
2024/01/19 10:52:52;;;;;;;7.00;4.88;;;3.30;97.20;;;;;;6241831;23;20090;-69
2024/01/19 10:55:46;;;;;;;5.32;4.18;;;3.30;97.20;;;;;;6240503;23;20012;-69
2024/01/19 10:58:33;;;;;;;7.90;4.10;;;3.40;97.20;;;;;;6236159;23;20004;-69
2024/01/19 11:01:19;;;;;;;8.60;4.70;;;3.40;97.10;;;;;;6239660;23;20415;-69
2024/01/19 11:04:07;;;;;;;8.65;5.50;;;3.40;97.10;;;;;;6240990;23;20084;-68
2024/01/19 11:06:53;;;;;;;7.07;4.35;;;3.40;97.10;;;;;;6241333;23;20023;-69
2024/01/19 11:09:40;;;;;;;8.55;5.35;;;3.40;97.10;;;;;;6240712;23;20047;-68
2024/01/19 11:12:26;;;;;;;7.38;5.20;;;3.40;97.10;;;;;;6241502;23;20407;-69
2024/01/19 11:15:15;;;;;;;8.93;4.90;;;3.50;97.10;;;;;;6240368;23;20445;-69
2024/01/19 11:18:06;;;;;;;8.40;5.03;;;3.50;97.10;;;;;;6241677;23;20039;-69
2024/01/19 11:20:52;;;;;;;11.25;5.45;;;3.50;97.10;;;;;;6240458;23;20008;-68
2024/01/19 11:23:39;;;;;;;6.80;4.68;;;3.50;97.10;;;;;;6240530;23;20016;-69
2024/01/19 11:26:35;;;;;;;10.90;5.93;;;3.60;97.20;;;;;;6240248;23;20004;-69
2024/01/19 11:29:25;;;;;;;7.35;4.65;;;3.70;97.20;;;;;;6240767;23;20345;-69
2024/01/19 11:32:14;;;;;;;9.30;4.70;;;3.70;97.20;;;;;;6240751;22;20471;-69
2024/01/19 11:34:59;;;;;;;6.22;4.80;;;3.70;97.20;;;;;;6240534;23;20008;-69
2024/01/19 11:37:46;;;;;;;8.75;4.50;;;3.90;97.20;;;;;;6240501;23;20043;-69
2024/01/19 11:40:34;;;;;;;14.50;4.57;;;3.90;97.20;;;;;;6241164;23;20031;-69
2024/01/19 11:43:41;;;;;;;9.18;5.00;;;4.00;97.20;;;;;;6239337;23;20019;-68
2024/01/19 11:47:02;;;;;;;9.63;4.88;;;4.00;97.10;;;;;;6243068;23;20360;-69
2024/01/19 11:49:48;;;;;;;7.55;4.75;;;4.10;97.10;;;;;;6148640;23;20014;-68
2024/01/19 11:52:35;;;;;;;13.50;5.07;;;4.10;97.30;;;;;;6148165;23;20018;-69
2024/01/19 11:55:27;;;;;;;8.40;4.50;;;4.20;97.10;;;;;;6149136;23;20041;-68
2024/01/19 11:58:34;;;;;;;9.30;4.63;;;4.20;97.10;;;;;;6149361;23;20362;-68
2024/01/19 12:01:22;;;;;;;8.77;5.28;;;4.30;97.00;;;;;;6148346;23;20021;-68
2024/01/19 12:04:08;;;;;;;11.00;5.00;;;4.20;96.90;;;;;;6147551;23;20045;-68
2024/01/19 12:07:03;;;;;;;9.50;4.82;;;4.30;96.90;;;;;;6145790;23;20037;-68
2024/01/19 12:10:20;;;;;;;6.25;3.95;;;4.30;96.90;;;;;;6148127;23;20005;-68
2024/01/19 12:13:06;;;;;;;9.93;4.28;;;4.30;96.90;;;;;;6149925;23;20112;-69
2024/01/19 12:15:51;;;;;;;9.20;5.18;;;4.30;96.90;;;;;;6149216;23;20453;-68
2024/01/19 12:18:38;;;;;;;8.48;4.70;;;4.30;96.80;;;;;;6150537;23;20017;-68
2024/01/19 12:21:25;;;;;;;9.52;4.45;;;4.40;96.80;;;;;;6147014;23;20013;-68
2024/01/19 12:24:18;;;;;;;6.53;3.85;;;4.40;96.80;;;;;;6221507;23;20008;-68
2024/01/19 12:27:04;;;;;;;6.97;3.80;;;4.40;96.80;;;;;;6242901;23;20008;-68
2024/01/19 12:29:50;;;;;;;7.78;4.45;;;4.50;96.80;;;;;;6243497;23;20004;-68
2024/01/19 12:32:36;;;;;;;8.60;4.13;;;4.50;96.80;;;;;;6240930;23;20020;-68
2024/01/19 12:35:22;;;;;;;7.65;4.47;;;4.50;96.70;;;;;;6242423;23;20009;-68
2024/01/19 12:38:09;;;;;;;8.50;4.63;;;4.50;96.50;;;;;;6241732;23;20074;-68
2024/01/19 12:40:56;;;;;;;7.03;4.50;;;4.50;96.60;;;;;;6240995;23;20012;-68
2024/01/19 12:43:43;;;;;;;8.95;4.15;;;4.50;96.60;;;;;;6242514;23;20011;-68
2024/01/19 12:46:29;;;;;;;9.75;5.38;;;4.50;96.80;;;;;;6243098;23;20027;-68
2024/01/19 12:49:14;;;;;;;7.78;3.75;;;4.50;96.50;;;;;;6240602;23;20031;-69
2024/01/19 12:52:00;;;;;;;9.77;4.05;;;4.50;96.60;;;;;;6241179;23;20449;-68
2024/01/19 12:54:46;;;;;;;9.52;4.82;;;4.60;96.60;;;;;;6241888;23;20005;-69
2024/01/19 12:57:32;;;;;;;10.20;3.85;;;4.60;96.60;;;;;;6241723;23;20008;-69
2024/01/19 13:00:23;;;;;;;6.30;3.72;;;4.60;96.30;;;;;;6240748;23;20019;-68
2024/01/19 13:03:10;;;;;;;7.43;3.92;;;4.60;96.50;;;;;;6242109;23;20015;-68
2024/01/19 13:06:00;;;;;;;9.00;3.90;;;4.60;96.50;;;;;;6243353;23;20012;-68
2024/01/19 13:08:46;;;;;;;8.93;4.88;;;4.60;96.40;;;;;;6242972;23;20019;-68
2024/01/19 13:11:32;;;;;;;8.10;4.20;;;4.60;96.40;;;;;;6241410;23;20154;-68
2024/01/19 13:14:22;;;;;;;11.35;4.60;;;4.60;96.40;;;;;;6240392;23;20015;-68
2024/01/19 13:17:08;;;;;;;9.15;3.83;;;4.60;96.30;;;;;;6241320;23;20437;-68
2024/01/19 13:19:54;;;;;;;6.88;4.20;;;4.60;96.40;;;;;;6220360;23;20004;-68
2024/01/19 13:22:40;;;;;;;7.97;3.95;;;4.60;96.30;;;;;;6240860;23;20437;-68
2024/01/19 13:25:26;;;;;;;5.70;3.88;;;4.70;96.30;;;;;;6240449;23;20082;-68
2024/01/19 13:28:12;;;;;;;7.72;4.53;;;4.60;96.20;;;;;;6239977;23;20404;-68
2024/01/19 13:30:58;;;;;;;9.18;4.70;;;4.60;96.20;;;;;;6243047;23;20447;-68
2024/01/19 13:33:46;;;;;;;8.27;4.25;;;4.60;96.30;;;;;;6241232;23;20473;-68
2024/01/19 13:36:31;;;;;;;6.60;3.58;;;4.60;96.50;;;;;;6243369;23;20008;-68
2024/01/19 13:39:17;;;;;;;9.80;4.50;;;4.60;96.30;;;;;;6243112;23;20019;-68
2024/01/19 13:42:04;;;;;;;7.22;3.85;;;4.70;96.30;;;;;;6240697;23;20035;-68
2024/01/19 13:44:49;;;;;;;6.30;4.65;;;4.60;96.30;;;;;;6241951;23;20472;-68
2024/01/19 13:47:37;;;;;;;6.18;4.20;;;4.70;96.30;;;;;;6240801;23;20422;-68
2024/01/19 13:50:23;;;;;;;9.02;4.55;;;4.70;96.30;;;;;;6241585;23;20341;-68
2024/01/19 13:53:09;;;;;;;10.32;4.22;;;4.80;96.30;;;;;;6242575;23;20389;-68
2024/01/19 13:55:54;;;;;;;8.07;4.50;;;4.70;96.20;;;;;;6268226;22;20016;-67
2024/01/19 13:58:40;;;;;;;6.85;4.50;;;4.70;96.10;;;;;;6265678;23;20015;-68
2024/01/19 14:01:26;;;;;;;9.48;4.03;;;4.70;96.20;;;;;;6244144;23;20008;-68
2024/01/19 14:04:13;;;;;;;9.98;5.15;;;4.70;96.40;;;;;;6244774;23;20012;-68
2024/01/19 14:06:59;;;;;;;6.38;4.10;;;4.70;96.20;;;;;;6242324;23;20015;-68
2024/01/19 14:09:45;;;;;;;10.52;4.65;;;4.70;96.20;;;;;;6240508;23;20392;-68
2024/01/19 14:12:31;;;;;;;10.27;4.68;;;4.80;96.20;;;;;;6240714;23;20016;-68
2024/01/19 14:15:18;;;;;;;6.30;4.45;;;4.80;96.30;;;;;;6242950;23;20004;-68
2024/01/19 14:18:04;;;;;;;5.88;4.30;;;4.80;96.30;;;;;;6242413;23;20402;-68
2024/01/19 14:20:54;;;;;;;9.52;4.70;;;4.90;96.30;;;;;;6240644;23;20046;-68
2024/01/19 14:23:40;;;;;;;7.93;4.32;;;4.90;96.30;;;;;;6240689;23;20348;-68
2024/01/19 14:26:26;;;;;;;9.93;4.97;;;4.90;96.30;;;;;;6240894;23;20008;-68
2024/01/19 14:29:13;;;;;;;10.93;4.57;;;5.00;96.30;;;;;;6220651;23;20012;-68
2024/01/19 14:31:59;;;;;;;8.27;4.40;;;4.90;96.30;;;;;;6218384;23;20016;-72
2024/01/19 14:34:45;;;;;;;10.18;5.05;;;5.00;96.20;;;;;;6242248;23;20099;-69
2024/01/19 14:37:31;;;;;;;8.20;4.65;;;4.90;96.20;;;;;;6242709;23;20016;-69
2024/01/19 14:40:17;;;;;;;11.05;5.03;;;4.90;96.20;;;;;;6240111;23;20083;-69
2024/01/19 14:43:03;;;;;;;6.93;4.88;;;4.90;96.20;;;;;;6239687;23;20363;-70
2024/01/19 14:45:49;;;;;;;12.20;5.78;;;4.90;96.20;;;;;;6240919;23;20008;-69
2024/01/19 14:48:36;;;;;;;10.52;5.32;;;4.80;96.20;;;;;;6240864;23;20429;-70
2024/01/19 14:51:22;;;;;;;10.57;5.30;;;4.80;96.20;;;;;;6241399;23;20058;-70
2024/01/19 14:54:10;;;;;;;9.27;4.75;;;4.80;96.20;;;;;;6239955;23;20396;-70
2024/01/19 14:56:59;;;;;;;14.95;5.18;;;4.80;96.20;;;;;;6241784;23;20020;-70
2024/01/19 14:59:44;;;;;;;10.50;5.38;;;4.80;96.30;;;;;;6241955;23;20008;-70
2024/01/19 15:02:30;;;;;;;10.35;5.40;;;4.80;96.30;;;;;;6240083;23;20008;-70
2024/01/19 15:05:16;;;;;;;10.38;5.78;;;4.80;96.30;;;;;;6240006;23;20032;-70
2024/01/19 15:08:02;;;;;;;10.77;5.45;;;4.80;96.30;;;;;;6240601;23;20445;-69
2024/01/19 15:10:49;;;;;;;10.40;5.57;;;4.80;96.30;;;;;;6237847;23;20011;-69
2024/01/19 15:13:35;;;;;;;15.05;6.78;;;4.80;96.40;;;;;;6239912;23;20036;-70
2024/01/19 15:16:21;;;;;;;12.68;6.13;;;4.80;96.40;;;;;;6241727;23;20008;-69
2024/01/19 15:19:07;;;;;;;10.50;5.00;;;4.80;96.30;;;;;;6241776;23;20066;-69
2024/01/19 15:21:55;;;;;;;12.50;6.05;;;4.80;96.40;;;;;;6240398;23;20436;-69
2024/01/19 15:24:42;;;;;;;10.35;5.95;;;4.80;96.40;;;;;;6238518;23;20020;-70
2024/01/19 15:27:27;;;;;;;12.88;6.50;;;4.90;96.40;;;;;;6240630;23;20074;-70
2024/01/19 15:30:16;;;;;;;8.30;5.70;;;4.90;96.40;;;;;;6242434;23;20015;-70
2024/01/19 15:33:02;;;;;;;9.60;6.65;;;4.90;96.40;;;;;;6241060;23;20082;-69
2024/01/19 15:35:48;;;;;;;10.80;6.38;;;4.90;96.30;;;;;;6241156;23;20146;-70
2024/01/19 15:38:34;;;;;;;10.13;5.28;;;4.90;96.30;;;;;;6240300;23;20507;-69
2024/01/19 15:41:24;;;;;;;11.23;5.88;;;4.90;96.30;;;;;;6240141;23;20012;-69
2024/01/19 15:44:10;;;;;;;10.00;5.70;;;4.90;96.30;;;;;;6242553;23;20388;-69
2024/01/19 15:46:56;;;;;;;10.98;5.75;;;4.90;96.30;;;;;;6242174;23;20352;-69
2024/01/19 15:49:43;;;;;;;15.13;6.43;;;5.00;96.30;;;;;;6242831;23;20012;-70
2024/01/19 15:52:29;;;;;;;7.90;5.55;;;5.00;96.30;;;;;;6243921;23;20073;-69
2024/01/19 15:55:15;;;;;;;14.13;6.82;;;5.00;96.30;;;;;;6243701;23;20035;-63
2024/01/19 15:58:01;;;;;;;14.27;7.50;;;4.90;96.30;;;;;;6238462;23;20357;-64
2024/01/19 16:00:47;;;;;;;12.68;5.93;;;5.00;96.30;;;;;;6241607;23;20437;-64
2024/01/19 16:03:33;;;;;;;11.75;6.30;;;5.00;96.30;;;;;;6242878;23;20433;-63
2024/01/19 16:06:18;;;;;;;11.43;6.93;;;5.00;96.30;;;;;;6242654;23;20015;-64
2024/01/19 16:09:05;;;;;;;11.23;7.13;;;4.90;96.30;;;;;;6219946;23;20066;-64
2024/01/19 16:11:50;;;;;;;14.15;7.78;;;4.90;96.30;;;;;;6241928;23;20026;-64